Yaupon Beach, North Carolina
Current Conditions -  °F | °C
As of 5:15 PM on Tuesday 21 Oct 2014 (Local Time) from KSUT Reporting Station
Clear Clear  
Wind Chill: 22°   Ceiling: Unl
Heat Index: 22°   Visibility: 10mi
Dew Point: 13°   Wind: 9mph
Humidity: 57%   Direction: 220°SW
Pressure: 29.85"   Gusts: NA
Location:  33.9216°N, 78.1244°W
Report Text: KSUT 212115Z AUTO 22008KT 10SM CLR 22/13 A2985 RMK AO2 T02210133
Loading
Personal Weather Stations






























Interactive Weather Map
Tropical Storm Tracking
New forecast layout! Learn more

10-Day Weather Forecast

Advertisements
Track Severe Weather on mobile